createdAt,value
2023-04-07T00:01:49.805Z,1.30
2023-04-07T00:04:18.241Z,1.17
2023-04-07T00:06:47.958Z,1.23
2023-04-07T00:09:16.161Z,1.35
2023-04-07T00:11:44.279Z,0.90
2023-04-07T00:14:12.423Z,0.98
2023-04-07T00:16:40.624Z,0.95
2023-04-07T00:19:08.830Z,0.95
2023-04-07T00:21:37.066Z,1.00
2023-04-07T00:24:07.033Z,0.88
2023-04-07T00:26:35.363Z,1.10
2023-04-07T00:29:03.569Z,1.00
2023-04-07T00:31:31.657Z,0.82
2023-04-07T00:33:59.816Z,1.30
2023-04-07T00:36:28.796Z,1.02
2023-04-07T00:38:56.900Z,1.35
2023-04-07T00:41:26.636Z,1.20
2023-04-07T00:43:54.880Z,1.02
2023-04-07T00:46:24.644Z,1.05
2023-04-07T00:48:52.938Z,1.00
2023-04-07T00:51:23.042Z,1.05
2023-04-07T00:53:51.263Z,1.00
2023-04-07T00:56:19.419Z,0.80
2023-04-07T00:58:48.959Z,1.05
2023-04-07T01:01:21.143Z,1.20
2023-04-07T01:03:56.360Z,1.00
2023-04-07T01:06:29.656Z,1.08
2023-04-07T01:09:05.223Z,1.17
2023-04-07T01:11:42.265Z,0.88
2023-04-07T01:14:14.604Z,1.20
2023-04-07T01:16:48.262Z,0.80
2023-04-07T01:19:27.219Z,1.20
2023-04-07T01:21:57.612Z,1.00
2023-04-07T01:24:55.873Z,1.10
2023-04-07T01:27:44.780Z,0.90
2023-04-07T01:30:16.567Z,1.02
2023-04-07T01:32:51.599Z,0.95
2023-04-07T01:35:21.187Z,0.90
2023-04-07T01:37:50.925Z,0.80
2023-04-07T01:40:20.370Z,1.00
2023-04-07T01:42:50.011Z,0.65
2023-04-07T01:45:21.571Z,0.90
2023-04-07T01:47:50.622Z,0.95
2023-04-07T01:50:19.356Z,0.90
2023-04-07T01:52:47.942Z,1.08
2023-04-07T01:55:16.394Z,0.77
2023-04-07T01:57:44.554Z,1.02
2023-04-07T02:00:13.884Z,0.77
2023-04-07T02:02:46.604Z,0.70
2023-04-07T02:05:19.193Z,0.95
2023-04-07T02:07:53.049Z,0.70
2023-04-07T02:10:24.976Z,1.00
2023-04-07T02:12:53.710Z,1.08
2023-04-07T02:15:23.303Z,1.05
2023-04-07T02:17:56.210Z,0.73
2023-04-07T02:20:25.513Z,1.13
2023-04-07T02:22:53.826Z,1.00
2023-04-07T02:25:26.547Z,0.80
2023-04-07T02:27:55.490Z,0.75
2023-04-07T02:30:24.319Z,0.80
2023-04-07T02:32:53.932Z,0.90
2023-04-07T02:35:22.290Z,0.85
2023-04-07T02:37:50.814Z,0.90
2023-04-07T02:40:19.241Z,0.90
2023-04-07T02:42:48.063Z,0.82
2023-04-07T02:45:16.493Z,0.88
2023-04-07T02:47:44.717Z,1.00
2023-04-07T02:50:14.459Z,1.05
2023-04-07T02:52:42.571Z,0.70
2023-04-07T02:55:11.370Z,0.73
2023-04-07T02:57:39.486Z,0.80
2023-04-07T03:00:08.861Z,0.75
2023-04-07T03:02:37.173Z,0.90
2023-04-07T03:05:05.695Z,0.80
2023-04-07T03:07:35.234Z,1.02
2023-04-07T03:10:03.325Z,0.85
2023-04-07T03:12:31.460Z,0.80
2023-04-07T03:14:59.651Z,0.88
2023-04-07T03:17:27.802Z,0.80
2023-04-07T03:19:56.213Z,0.90
2023-04-07T03:22:24.384Z,1.00
2023-04-07T03:24:53.823Z,1.08
2023-04-07T03:27:21.981Z,1.00
2023-04-07T03:29:51.263Z,0.77
2023-04-07T03:32:21.211Z,0.77
2023-04-07T03:34:49.479Z,1.00
2023-04-07T03:37:17.589Z,0.70
2023-04-07T03:39:45.735Z,0.85
2023-04-07T03:42:15.556Z,1.10
2023-04-07T03:44:43.728Z,0.90
2023-04-07T03:47:11.908Z,1.10
2023-04-07T03:49:40.034Z,0.70
2023-04-07T03:52:08.142Z,0.80
2023-04-07T03:54:36.702Z,0.68
2023-04-07T03:57:05.441Z,0.70
2023-04-07T03:59:35.156Z,0.90
2023-04-07T04:02:03.541Z,0.90
2023-04-07T04:04:31.699Z,1.05
2023-04-07T04:06:59.890Z,0.90
2023-04-07T04:09:27.970Z,1.00
2023-04-07T04:11:56.393Z,0.85
2023-04-07T04:14:24.583Z,0.70
2023-04-07T04:16:54.477Z,0.95
2023-04-07T04:19:22.608Z,1.10
2023-04-07T04:21:50.838Z,0.88
2023-04-07T04:24:18.987Z,0.98
2023-04-07T04:26:47.089Z,0.90
2023-04-07T04:29:15.647Z,0.65
2023-04-07T04:31:43.930Z,0.95
2023-04-07T04:34:13.516Z,0.85
2023-04-07T04:36:41.950Z,1.00
2023-04-07T04:39:10.309Z,0.95
2023-04-07T04:41:38.557Z,0.68
2023-04-07T04:44:07.020Z,1.00
2023-04-07T04:46:35.503Z,0.80
2023-04-07T04:49:03.655Z,0.80
2023-04-07T04:51:33.067Z,0.70
2023-04-07T04:54:03.754Z,0.85
2023-04-07T04:56:32.259Z,0.68
2023-04-07T04:59:00.526Z,0.73
2023-04-07T05:01:29.181Z,1.02
2023-04-07T05:03:58.558Z,0.98
2023-04-07T05:06:27.577Z,0.90
2023-04-07T05:08:57.363Z,0.47
2023-04-07T05:11:25.844Z,1.00
2023-04-07T05:13:54.221Z,0.73
2023-04-07T05:16:22.654Z,1.00
2023-04-07T05:18:50.857Z,0.73
2023-04-07T05:21:20.209Z,0.88
2023-04-07T05:23:48.458Z,0.80
2023-04-07T05:26:18.105Z,0.90
2023-04-07T05:28:46.669Z,0.75
2023-04-07T05:31:14.822Z,0.95
2023-04-07T05:33:43.427Z,0.82
2023-04-07T05:36:11.556Z,0.70
2023-04-07T05:38:39.686Z,0.80
2023-04-07T05:41:07.799Z,1.00
2023-04-07T05:43:37.379Z,1.13
2023-04-07T05:46:05.599Z,0.90
2023-04-07T05:48:33.822Z,0.77
2023-04-07T05:51:01.998Z,0.90
2023-04-07T05:53:30.146Z,1.00
2023-04-07T05:55:58.269Z,0.95
2023-04-07T05:58:26.678Z,0.95
2023-04-07T06:00:56.371Z,1.00
2023-04-07T06:03:24.645Z,0.90
2023-04-07T06:05:52.873Z,1.10
2023-04-07T06:08:21.088Z,0.90
2023-04-07T06:10:49.352Z,0.88
2023-04-07T06:13:17.521Z,1.00
2023-04-07T06:15:45.826Z,0.80
2023-04-07T06:18:15.559Z,0.90
2023-04-07T06:20:43.708Z,0.95
2023-04-07T06:23:12.003Z,0.90
2023-04-07T06:25:40.466Z,1.65
2023-04-07T06:28:08.674Z,2.08
2023-04-07T06:30:36.937Z,3.55
2023-04-07T06:33:05.269Z,5.60
2023-04-07T06:35:34.891Z,5.93
2023-04-07T06:38:03.348Z,6.20
2023-04-07T06:40:31.514Z,5.97
2023-04-07T06:42:59.681Z,5.75
2023-04-07T06:45:27.819Z,6.00
2023-04-07T06:47:56.040Z,5.65
2023-04-07T06:50:24.306Z,5.68
2023-04-07T06:52:53.868Z,7.25
2023-04-07T06:55:21.995Z,6.32
2023-04-07T06:57:52.317Z,5.95
2023-04-07T07:00:20.757Z,6.23
2023-04-07T07:02:49.081Z,6.03
2023-04-07T07:05:17.621Z,6.00
2023-04-07T07:07:45.804Z,6.55
2023-04-07T07:10:15.461Z,6.50
2023-04-07T07:12:43.637Z,5.57
2023-04-07T07:15:12.205Z,6.20
2023-04-07T07:17:40.308Z,6.32
2023-04-07T07:20:09.678Z,5.65
2023-04-07T07:22:37.863Z,5.47
2023-04-07T07:25:06.777Z,6.28
2023-04-07T07:27:36.371Z,6.63
2023-04-07T07:30:04.858Z,5.70
2023-04-07T07:32:33.171Z,6.25
2023-04-07T07:35:01.580Z,6.10
2023-04-07T07:37:29.686Z,6.10
2023-04-07T07:39:57.821Z,5.47
2023-04-07T07:42:26.092Z,6.30
2023-04-07T07:44:55.929Z,6.20
2023-04-07T07:47:24.489Z,6.10
2023-04-07T07:49:52.623Z,6.00
2023-04-07T07:52:21.207Z,5.20
2023-04-07T07:54:51.181Z,6.25
2023-04-07T07:57:19.360Z,6.15
2023-04-07T07:59:47.500Z,6.10
2023-04-07T08:02:17.118Z,6.88
2023-04-07T08:04:45.439Z,6.03
2023-04-07T08:07:13.703Z,5.97
2023-04-07T08:09:42.149Z,6.43
2023-04-07T08:12:10.648Z,6.65
2023-04-07T08:14:38.765Z,5.68
2023-04-07T08:17:06.994Z,5.60
2023-04-07T08:19:36.653Z,5.30
2023-04-07T08:22:04.857Z,6.05
2023-04-07T08:24:33.130Z,6.47
2023-04-07T08:27:01.485Z,5.80
2023-04-07T08:29:31.271Z,6.28
2023-04-07T08:32:00.302Z,6.18
2023-04-07T08:34:28.552Z,6.05
2023-04-07T08:36:58.303Z,6.22
2023-04-07T08:39:26.830Z,6.07
2023-04-07T08:41:57.089Z,6.70
2023-04-07T08:44:29.272Z,6.43
2023-04-07T08:47:00.861Z,6.47
2023-04-07T08:49:31.805Z,6.53
2023-04-07T08:52:04.710Z,6.50
2023-04-07T08:54:34.146Z,7.13
2023-04-07T08:57:03.907Z,5.85
2023-04-07T08:59:33.790Z,6.13
2023-04-07T09:02:02.241Z,6.00
2023-04-07T09:04:30.742Z,8.40
2023-04-07T09:07:02.146Z,5.50
2023-04-07T09:09:31.146Z,6.55
2023-04-07T09:11:59.409Z,6.22
2023-04-07T09:14:28.412Z,6.05
2023-04-07T09:16:57.042Z,6.13
2023-04-07T09:19:28.222Z,6.57
2023-04-07T09:24:27.432Z,6.15
2023-04-07T09:27:14.600Z,5.78
2023-04-07T09:29:45.994Z,5.32
2023-04-07T09:32:23.109Z,6.13
2023-04-07T09:35:00.420Z,6.30
2023-04-07T09:37:28.469Z,6.13
2023-04-07T09:39:57.982Z,5.63
2023-04-07T09:42:26.972Z,5.65
2023-04-07T09:44:55.426Z,5.93
2023-04-07T09:47:29.172Z,6.50
2023-04-07T09:49:59.433Z,6.05
2023-04-07T09:52:51.821Z,5.73
2023-04-07T09:55:25.180Z,5.78
2023-04-07T09:57:55.462Z,5.82
2023-04-07T10:00:24.090Z,5.63
2023-04-07T10:02:53.394Z,6.00
2023-04-07T10:05:22.413Z,5.65
2023-04-07T10:07:50.741Z,5.70
2023-04-07T10:10:19.210Z,5.30
2023-04-07T10:12:51.084Z,5.22
2023-04-07T10:15:19.417Z,5.10
2023-04-07T10:17:49.372Z,5.65
2023-04-07T10:20:21.222Z,5.32
2023-04-07T10:22:51.570Z,5.47
2023-04-07T10:25:22.343Z,6.50
2023-04-07T10:27:56.355Z,5.25
2023-04-07T10:30:27.466Z,7.07
2023-04-07T10:32:56.401Z,5.40
2023-04-07T10:35:26.071Z,5.38
2023-04-07T10:38:13.731Z,5.32
2023-04-07T10:40:43.102Z,5.50
2023-04-07T10:43:13.757Z,4.80
2023-04-07T10:45:59.889Z,5.28
2023-04-07T10:48:33.307Z,4.93
2023-04-07T10:51:18.001Z,4.80
2023-04-07T10:54:21.121Z,4.43
2023-04-07T10:57:15.098Z,4.35
2023-04-07T11:00:16.165Z,4.30
2023-04-07T11:02:45.690Z,4.40
2023-04-07T11:05:24.072Z,4.95
2023-04-07T11:07:57.737Z,4.07
2023-04-07T11:10:26.328Z,4.80
2023-04-07T11:13:06.240Z,4.50
2023-04-07T11:15:40.307Z,4.72
2023-04-07T11:18:14.587Z,4.80
2023-04-07T11:20:46.146Z,4.65
2023-04-07T11:23:15.199Z,4.38
2023-04-07T11:25:45.357Z,4.05
2023-04-07T11:28:14.830Z,4.40
2023-04-07T11:30:52.873Z,4.22
2023-04-07T11:33:22.589Z,4.35
2023-04-07T11:35:56.839Z,4.53
2023-04-07T11:38:27.296Z,4.03
2023-04-07T11:40:56.471Z,4.30
2023-04-07T11:43:26.477Z,3.85
2023-04-07T11:46:12.533Z,4.53
2023-04-07T11:48:42.328Z,3.88
2023-04-07T11:51:17.749Z,4.43
2023-04-07T11:53:47.224Z,3.70
2023-04-07T11:56:18.874Z,4.22
2023-04-07T11:58:50.528Z,3.95
2023-04-07T12:01:20.969Z,3.78
2023-04-07T12:04:00.211Z,3.85
2023-04-07T12:06:30.866Z,3.78
2023-04-07T12:08:59.084Z,3.50
2023-04-07T12:11:27.747Z,4.55
2023-04-07T12:13:56.657Z,3.75
2023-04-07T12:16:26.332Z,3.80
2023-04-07T12:18:54.604Z,3.90
2023-04-07T12:21:22.750Z,3.55
2023-04-07T12:23:51.760Z,3.55
2023-04-07T12:26:21.173Z,4.18
2023-04-07T12:28:51.132Z,3.92
2023-04-07T12:31:19.665Z,4.05
2023-04-07T12:33:49.851Z,3.70
2023-04-07T12:36:18.228Z,4.25
2023-04-07T12:38:47.227Z,3.53
2023-04-07T12:41:15.647Z,3.50
2023-04-07T12:43:45.027Z,4.10
2023-04-07T12:46:14.951Z,3.58
2023-04-07T12:48:43.210Z,4.13
2023-04-07T12:51:12.879Z,3.85
2023-04-07T12:53:41.371Z,3.55
2023-04-07T12:56:09.756Z,4.10
2023-04-07T12:58:38.179Z,3.75
2023-04-07T13:01:06.881Z,3.28
2023-04-07T13:03:35.274Z,3.20
2023-04-07T13:06:04.631Z,3.55
2023-04-07T13:08:34.171Z,3.58
2023-04-07T13:11:02.490Z,3.42
2023-04-07T13:13:30.828Z,3.10
2023-04-07T13:15:58.961Z,3.80
2023-04-07T13:18:27.358Z,3.67
2023-04-07T13:21:24.899Z,3.08
2023-04-07T13:23:45.157Z,3.30
2023-04-07T13:26:13.466Z,3.78
2023-04-07T13:28:41.644Z,3.20
2023-04-07T13:31:11.877Z,3.13
2023-04-07T13:33:41.274Z,3.20
2023-04-07T13:36:09.569Z,2.97
2023-04-07T13:38:37.844Z,3.42
2023-04-07T13:41:07.361Z,3.22
2023-04-07T13:43:35.580Z,3.20
2023-04-07T13:46:06.175Z,3.35
2023-04-07T13:48:36.005Z,3.47
2023-04-07T13:51:04.404Z,3.35
2023-04-07T13:53:32.572Z,3.17
2023-04-07T13:56:01.165Z,3.10
2023-04-07T13:58:32.035Z,3.13
2023-04-07T14:03:29.042Z,2.70
2023-04-07T14:06:00.933Z,2.88
2023-04-07T14:08:29.453Z,3.33
2023-04-07T14:10:57.609Z,3.35
2023-04-07T14:13:25.820Z,3.28
2023-04-07T14:15:55.932Z,3.20
2023-04-07T14:18:24.684Z,3.23
2023-04-07T14:20:52.992Z,3.25
2023-04-07T14:23:33.811Z,3.45
2023-04-07T14:26:04.480Z,2.72
2023-04-07T14:28:33.318Z,2.97
2023-04-07T14:31:03.092Z,3.20
2023-04-07T14:33:31.377Z,3.03
2023-04-07T14:35:59.553Z,3.15
2023-04-07T14:38:27.727Z,3.03
2023-04-07T14:40:56.596Z,3.22
2023-04-07T14:43:24.812Z,3.10
2023-04-07T14:45:52.963Z,3.00
2023-04-07T14:48:22.524Z,2.72
2023-04-07T14:51:02.232Z,3.10
2023-04-07T14:53:36.872Z,3.00
2023-04-07T14:56:06.081Z,2.40
2023-04-07T14:58:37.233Z,2.67
2023-04-07T15:01:06.559Z,2.90
2023-04-07T15:03:36.672Z,3.05
2023-04-07T15:06:08.763Z,3.30
2023-04-07T15:08:37.021Z,2.83
2023-04-07T15:11:06.444Z,2.33
2023-04-07T15:13:34.642Z,2.58
2023-04-07T15:16:10.598Z,2.15
2023-04-07T15:18:42.429Z,2.55
2023-04-07T15:21:11.080Z,2.53
2023-04-07T15:23:40.429Z,2.50
2023-04-07T15:26:09.404Z,2.80
2023-04-07T15:28:37.591Z,2.42
2023-04-07T15:31:08.715Z,2.92
2023-04-07T15:33:37.802Z,2.63
2023-04-07T15:36:08.202Z,2.28
2023-04-07T15:38:36.720Z,2.30
2023-04-07T15:41:04.824Z,2.42
2023-04-07T15:43:33.009Z,2.72
2023-04-07T15:46:01.314Z,2.70
2023-04-07T15:48:29.431Z,2.90
2023-04-07T15:50:57.618Z,2.50
2023-04-07T15:53:27.200Z,2.97
2023-04-07T15:55:55.986Z,2.42
2023-04-07T15:58:24.151Z,2.55
2023-04-07T16:00:52.574Z,2.40
2023-04-07T16:03:20.857Z,2.35
2023-04-07T16:05:51.036Z,2.10
2023-04-07T16:08:19.159Z,1.95
2023-04-07T16:10:48.706Z,2.28
2023-04-07T16:13:17.048Z,1.73
2023-04-07T16:15:45.187Z,2.03
2023-04-07T16:18:13.426Z,2.42
2023-04-07T16:20:41.795Z,2.42
2023-04-07T16:23:10.780Z,2.00
2023-04-07T16:25:39.032Z,2.13
2023-04-07T16:28:08.523Z,2.28
2023-04-07T16:30:36.791Z,2.25
2023-04-07T16:33:05.050Z,2.30
2023-04-07T16:35:33.310Z,2.17
2023-04-07T16:38:04.689Z,2.30
2023-04-07T16:40:33.525Z,2.45
2023-04-07T16:43:01.905Z,2.30
2023-04-07T16:45:31.542Z,2.90
2023-04-07T16:47:59.804Z,3.15
2023-04-07T16:50:28.037Z,2.53
2023-04-07T16:52:57.676Z,2.42
2023-04-07T16:55:26.152Z,2.35
2023-04-07T16:57:54.245Z,2.42
2023-04-07T17:00:22.717Z,2.40
2023-04-07T17:02:52.407Z,2.25
2023-04-07T17:05:20.657Z,3.17
2023-04-07T17:07:49.181Z,2.50
2023-04-07T17:10:17.410Z,2.50
2023-04-07T17:12:48.401Z,2.40
2023-04-07T17:17:44.593Z,2.40
2023-04-07T17:20:17.441Z,2.50
2023-04-07T17:22:45.694Z,2.28
2023-04-07T17:25:13.834Z,2.58
2023-04-07T17:27:42.016Z,2.20
2023-04-07T17:30:10.907Z,2.20
2023-04-07T17:32:39.077Z,2.42
2023-04-07T17:35:08.088Z,3.35
2023-04-07T17:37:38.407Z,2.65
2023-04-07T17:40:07.912Z,2.70
2023-04-07T17:42:35.951Z,2.80
2023-04-07T17:45:04.204Z,2.78
2023-04-07T17:47:32.385Z,2.60
2023-04-07T17:50:00.562Z,2.70
2023-04-07T17:52:29.626Z,2.65
2023-04-07T17:54:59.233Z,2.28
2023-04-07T17:57:27.323Z,2.55
2023-04-07T17:59:55.384Z,2.92
2023-04-07T18:02:23.640Z,2.65
2023-04-07T18:04:51.967Z,2.38
2023-04-07T18:07:21.259Z,2.58
2023-04-07T18:09:49.358Z,3.08
2023-04-07T18:12:18.875Z,2.38
2023-04-07T18:14:47.046Z,2.30
2023-04-07T18:17:15.183Z,2.83
2023-04-07T18:19:43.490Z,2.65
2023-04-07T18:22:11.802Z,2.50
2023-04-07T18:24:39.941Z,2.33
2023-04-07T18:27:08.116Z,2.40
2023-04-07T18:29:37.682Z,2.17
2023-04-07T18:32:06.545Z,2.42
2023-04-07T18:34:34.761Z,2.47
2023-04-07T18:37:02.860Z,3.03
2023-04-07T18:39:31.186Z,2.45
2023-04-07T18:41:59.304Z,3.00
2023-04-07T18:44:28.522Z,3.38
2023-04-07T18:46:58.233Z,2.97
2023-04-07T18:49:28.427Z,3.67
2023-04-07T18:51:56.875Z,3.30
2023-04-07T18:54:27.121Z,2.88
2023-04-07T18:56:56.185Z,3.67
2023-04-07T18:59:24.747Z,3.92
2023-04-07T19:01:53.075Z,4.20
2023-04-07T19:04:24.819Z,4.35
2023-04-07T19:06:53.522Z,5.05
2023-04-07T19:09:21.984Z,5.20
2023-04-07T19:11:51.398Z,6.05
2023-04-07T19:14:19.664Z,5.80
2023-04-07T19:16:48.123Z,6.15
2023-04-07T19:19:17.470Z,5.90
2023-04-07T19:21:47.117Z,7.47
2023-04-07T19:24:15.680Z,6.70
2023-04-07T19:26:44.699Z,6.80
2023-04-07T19:29:12.821Z,7.50
2023-04-07T19:31:41.185Z,7.55
2023-04-07T19:34:09.323Z,7.80
2023-04-07T19:36:37.612Z,7.55
2023-04-07T19:39:07.151Z,7.03
2023-04-07T19:41:35.287Z,7.05
2023-04-07T19:44:03.601Z,6.95
2023-04-07T19:46:33.299Z,7.35
2023-04-07T19:49:01.510Z,7.30
2023-04-07T19:51:29.693Z,7.30
2023-04-07T19:53:58.105Z,7.32
2023-04-07T19:56:27.984Z,6.90
2023-04-07T19:58:56.256Z,7.22
2023-04-07T20:01:24.409Z,7.45
2023-04-07T20:03:52.884Z,6.20
2023-04-07T20:06:24.848Z,7.32
2023-04-07T20:08:53.054Z,6.78
2023-04-07T20:11:21.642Z,7.25
2023-04-07T20:13:51.242Z,7.03
2023-04-07T20:16:19.423Z,6.97
2023-04-07T20:18:48.115Z,7.03
2023-04-07T20:21:16.451Z,6.80
2023-04-07T20:23:44.780Z,7.10
2023-04-07T20:26:12.994Z,6.78
2023-04-07T20:28:41.402Z,7.10
2023-04-07T20:31:11.106Z,6.75
2023-04-07T20:33:39.243Z,6.47
2023-04-07T20:36:07.644Z,6.68
2023-04-07T20:38:35.812Z,6.45
2023-04-07T20:41:04.021Z,6.25
2023-04-07T20:43:32.177Z,6.35
2023-04-07T20:46:00.340Z,5.93
2023-04-07T20:48:29.915Z,6.72
2023-04-07T20:50:58.222Z,6.78
2023-04-07T20:53:26.412Z,6.10
2023-04-07T20:55:54.770Z,6.20
2023-04-07T20:58:23.028Z,5.88
2023-04-07T21:00:57.077Z,6.45
2023-04-07T21:03:26.335Z,6.35
2023-04-07T21:05:56.751Z,5.95
2023-04-07T21:08:25.506Z,5.90
2023-04-07T21:10:53.754Z,5.97
2023-04-07T21:13:22.554Z,6.55
2023-04-07T21:15:50.842Z,6.03
2023-04-07T21:18:19.451Z,5.95
2023-04-07T21:20:47.835Z,5.93
2023-04-07T21:23:17.426Z,5.97
2023-04-07T21:25:45.510Z,5.68
2023-04-07T21:28:13.633Z,5.45
2023-04-07T21:30:42.585Z,5.47
2023-04-07T21:33:11.138Z,6.57
2023-04-07T21:35:39.350Z,6.05
2023-04-07T21:38:07.512Z,5.30
2023-04-07T21:40:36.924Z,5.43
2023-04-07T21:43:05.046Z,5.32
2023-04-07T21:45:33.215Z,5.40
2023-04-07T21:48:01.454Z,5.65
2023-04-07T21:50:29.975Z,5.20
2023-04-07T21:52:58.149Z,5.47
2023-04-07T21:55:26.201Z,5.57
2023-04-07T21:57:55.808Z,5.53
2023-04-07T22:00:24.094Z,5.45
2023-04-07T22:02:52.547Z,4.97
2023-04-07T22:05:21.258Z,5.93
2023-04-07T22:07:49.389Z,5.32
2023-04-07T22:10:17.858Z,4.75
2023-04-07T22:12:46.223Z,5.45
2023-04-07T22:15:15.713Z,5.45
2023-04-07T22:17:43.931Z,5.72
2023-04-07T22:20:12.775Z,4.95
2023-04-07T22:22:41.251Z,5.22
2023-04-07T22:25:10.091Z,5.35
2023-04-07T22:27:38.298Z,5.45
2023-04-07T22:30:09.984Z,4.43
2023-04-07T22:32:41.405Z,5.15
2023-04-07T22:35:10.480Z,5.28
2023-04-07T22:37:38.551Z,5.35
2023-04-07T22:40:07.921Z,4.40
2023-04-07T22:42:36.207Z,4.68
2023-04-07T22:45:04.799Z,4.82
2023-04-07T22:47:33.091Z,4.80
2023-04-07T22:50:02.737Z,4.97
2023-04-07T22:52:31.152Z,5.13
2023-04-07T22:54:59.294Z,4.68
2023-04-07T22:57:27.505Z,5.18
2023-04-07T22:59:55.908Z,5.05
2023-04-07T23:02:24.265Z,4.63
2023-04-07T23:04:52.557Z,5.18
2023-04-07T23:07:22.085Z,5.40
2023-04-07T23:09:50.319Z,4.65
2023-04-07T23:12:18.450Z,4.07
2023-04-07T23:14:46.514Z,4.80
2023-04-07T23:17:14.573Z,5.05
2023-04-07T23:19:42.681Z,4.72
2023-04-07T23:22:10.823Z,4.72
2023-04-07T23:24:40.403Z,4.95
2023-04-07T23:27:08.696Z,4.78
2023-04-07T23:29:37.293Z,4.80
2023-04-07T23:32:05.883Z,4.93
2023-04-07T23:34:34.066Z,4.65
2023-04-07T23:37:02.308Z,4.72
2023-04-07T23:39:30.488Z,4.72
2023-04-07T23:41:59.962Z,4.72
2023-04-07T23:44:27.995Z,4.70
2023-04-07T23:46:56.258Z,5.00
2023-04-07T23:49:24.352Z,4.63
2023-04-07T23:51:53.003Z,4.78
2023-04-07T23:54:21.149Z,4.72
2023-04-07T23:56:49.302Z,4.63
2023-04-07T23:59:18.863Z,4.63
